createdAt,value
2018-01-11T00:00:37.857Z,33.97
2018-01-11T00:03:04.776Z,31.75
2018-01-11T00:05:31.706Z,29.77
2018-01-11T00:07:58.526Z,31.73
2018-01-11T00:10:25.434Z,37.90
2018-01-11T00:12:52.275Z,29.42
2018-01-11T00:15:19.122Z,34.10
2018-01-11T00:17:46.114Z,36.65
2018-01-11T00:20:12.966Z,36.45
2018-01-11T00:22:40.545Z,37.88
2018-01-11T00:25:07.397Z,34.28
2018-01-11T00:27:34.240Z,38.15
2018-01-11T00:30:01.839Z,33.30
2018-01-11T00:32:29.422Z,36.05
2018-01-11T00:34:57.021Z,32.75
2018-01-11T00:37:23.918Z,41.85
2018-01-11T00:39:50.779Z,33.13
2018-01-11T00:42:18.394Z,37.35
2018-01-11T00:44:45.302Z,35.42
2018-01-11T00:47:12.849Z,38.10
2018-01-11T00:49:40.461Z,36.22
2018-01-11T00:52:07.315Z,32.92
2018-01-11T00:54:34.286Z,31.58
2018-01-11T00:57:01.888Z,31.80
2018-01-11T00:59:28.730Z,32.63
2018-01-11T01:01:55.618Z,32.83
2018-01-11T01:04:22.454Z,34.50
2018-01-11T01:06:49.498Z,31.85
2018-01-11T01:09:16.342Z,29.42
2018-01-11T01:11:43.189Z,31.12
2018-01-11T01:14:10.025Z,30.23
2018-01-11T01:16:36.890Z,26.45
2018-01-11T01:19:03.746Z,27.00
2018-01-11T01:21:30.565Z,26.27
2018-01-11T01:23:57.442Z,26.98
2018-01-11T01:26:25.046Z,29.27
2018-01-11T01:28:51.886Z,26.45
2018-01-11T01:31:18.713Z,28.60
2018-01-11T01:33:45.561Z,27.20
2018-01-11T01:36:12.410Z,27.48
2018-01-11T01:38:39.280Z,26.70
2018-01-11T01:41:06.153Z,27.48
2018-01-11T01:43:33.758Z,29.67
2018-01-11T01:46:00.621Z,27.25
2018-01-11T01:48:39.786Z,24.42
2018-01-11T01:51:07.359Z,27.05
2018-01-11T01:53:34.954Z,26.42
2018-01-11T01:56:01.806Z,23.90
2018-01-11T01:58:28.641Z,27.37
2018-01-11T02:00:55.498Z,24.83
2018-01-11T02:03:23.114Z,25.37
2018-01-11T02:05:49.958Z,22.83
2018-01-11T02:08:16.866Z,26.23
2018-01-11T02:10:43.725Z,25.58
2018-01-11T02:13:10.550Z,26.00
2018-01-11T02:15:37.390Z,22.95
2018-01-11T02:18:04.211Z,31.15
2018-01-11T02:20:31.069Z,24.87
2018-01-11T02:22:57.888Z,23.80
2018-01-11T02:25:24.750Z,28.35
2018-01-11T02:27:51.641Z,24.17
2018-01-11T02:30:18.497Z,21.65
2018-01-11T02:32:45.371Z,23.85
2018-01-11T02:35:12.234Z,22.67
2018-01-11T02:37:39.107Z,29.05
2018-01-11T02:40:06.714Z,24.90
2018-01-11T02:42:33.599Z,21.48
2018-01-11T02:45:00.459Z,21.70
2018-01-11T02:47:27.323Z,21.80
2018-01-11T02:49:54.170Z,22.83
2018-01-11T02:52:21.035Z,21.92
2018-01-11T02:54:47.934Z,21.87
2018-01-11T02:57:15.527Z,22.20
2018-01-11T02:59:42.374Z,21.90
2018-01-11T03:02:09.271Z,25.48
2018-01-11T03:04:36.858Z,21.15
2018-01-11T03:07:03.747Z,23.95
2018-01-11T03:09:30.598Z,19.67
2018-01-11T03:11:58.219Z,21.35
2018-01-11T03:14:25.058Z,23.10
2018-01-11T03:16:51.930Z,22.67
2018-01-11T03:19:18.780Z,23.42
2018-01-11T03:21:45.618Z,23.92
2018-01-11T03:24:12.477Z,23.58
2018-01-11T03:26:40.084Z,21.80
2018-01-11T03:29:06.958Z,20.83
2018-01-11T03:31:33.847Z,25.12
2018-01-11T03:34:00.776Z,21.98
2018-01-11T03:36:27.637Z,22.40
2018-01-11T03:38:54.478Z,25.15
2018-01-11T03:41:21.345Z,20.77
2018-01-11T03:43:48.178Z,23.17
2018-01-11T03:46:15.075Z,21.12
2018-01-11T03:48:41.917Z,23.85
2018-01-11T03:51:08.801Z,23.58
2018-01-11T03:53:35.675Z,25.27
2018-01-11T03:56:02.546Z,23.25
2018-01-11T03:58:30.150Z,25.60
2018-01-11T04:00:57.047Z,26.73
2018-01-11T04:03:23.898Z,21.75
2018-01-11T04:05:51.493Z,29.15
2018-01-11T04:08:18.366Z,25.50
2018-01-11T04:10:45.237Z,28.08
2018-01-11T04:13:12.844Z,21.65
2018-01-11T04:15:39.730Z,24.70
2018-01-11T04:18:06.618Z,28.67
2018-01-11T04:20:33.487Z,25.12
2018-01-11T04:23:00.331Z,25.83
2018-01-11T04:25:27.206Z,28.42
2018-01-11T04:27:54.819Z,27.85
2018-01-11T04:30:21.706Z,22.25
2018-01-11T04:32:48.574Z,27.00
2018-01-11T04:35:16.230Z,24.92
2018-01-11T04:37:43.062Z,22.60
2018-01-11T04:40:09.938Z,21.85
2018-01-11T04:42:36.802Z,17.40
2018-01-11T04:45:04.482Z,18.85
2018-01-11T04:47:31.358Z,20.00
2018-01-11T04:49:58.186Z,21.50
2018-01-11T04:52:25.034Z,18.40
2018-01-11T04:54:51.925Z,16.05
2018-01-11T04:57:18.762Z,18.65
2018-01-11T04:59:45.638Z,18.75
2018-01-11T05:02:12.508Z,16.27
2018-01-11T05:04:39.370Z,19.52
2018-01-11T05:07:06.994Z,16.60
2018-01-11T05:09:33.811Z,17.48
2018-01-11T05:12:00.682Z,15.65
2018-01-11T05:14:27.502Z,14.65
2018-01-11T05:16:54.374Z,15.43
2018-01-11T05:19:21.246Z,14.75
2018-01-11T05:21:48.226Z,15.15
2018-01-11T05:24:15.137Z,19.02
2018-01-11T05:26:42.823Z,17.60
2018-01-11T05:29:09.785Z,16.37
2018-01-11T05:31:36.666Z,14.52
2018-01-11T05:34:03.650Z,17.37
2018-01-11T05:36:31.438Z,14.85
2018-01-11T05:38:59.129Z,16.77
2018-01-11T05:41:26.006Z,17.87
2018-01-11T05:43:53.586Z,16.12
2018-01-11T05:46:20.434Z,13.73
2018-01-11T05:48:47.325Z,14.93
2018-01-11T05:51:14.927Z,14.68
2018-01-11T05:53:41.801Z,13.40
2018-01-11T05:56:08.678Z,16.05
2018-01-11T05:58:35.567Z,14.70
2018-01-11T06:01:03.134Z,17.65
2018-01-11T06:03:30.019Z,14.73
2018-01-11T06:05:56.885Z,14.20
2018-01-11T06:08:23.792Z,16.20
2018-01-11T06:10:50.730Z,16.75
2018-01-11T06:13:17.569Z,17.27
2018-01-11T06:15:44.390Z,18.08
2018-01-11T06:18:12.170Z,18.05
2018-01-11T06:20:39.014Z,18.25
2018-01-11T06:23:05.890Z,15.50
2018-01-11T06:25:32.746Z,14.70
2018-01-11T06:27:59.607Z,14.95
2018-01-11T06:30:26.470Z,16.00
2018-01-11T06:32:53.321Z,14.32
2018-01-11T06:35:20.205Z,15.65
2018-01-11T06:37:47.174Z,14.87
2018-01-11T06:40:14.025Z,18.62
2018-01-11T06:42:41.634Z,16.45
2018-01-11T06:45:08.506Z,17.00
2018-01-11T06:47:35.382Z,14.87
2018-01-11T06:50:03.170Z,17.62
2018-01-11T06:52:30.138Z,18.87
2018-01-11T06:54:57.099Z,14.73
2018-01-11T06:57:23.962Z,16.95
2018-01-11T06:59:50.827Z,16.08
2018-01-11T07:02:17.690Z,15.07
2018-01-11T07:04:44.593Z,19.15
2018-01-11T07:07:11.406Z,21.05
2018-01-11T07:09:38.278Z,17.85
2018-01-11T07:12:05.134Z,16.60
2018-01-11T07:14:31.998Z,20.83
2018-01-11T07:16:58.875Z,18.25
2018-01-11T07:19:25.738Z,15.50
2018-01-11T07:21:52.642Z,18.08
2018-01-11T07:24:19.475Z,19.52
2018-01-11T07:26:46.333Z,16.52
2018-01-11T07:29:13.178Z,16.67
2018-01-11T07:31:40.061Z,15.30
2018-01-11T07:34:06.902Z,17.23
2018-01-11T07:36:33.774Z,17.10
2018-01-11T07:39:01.355Z,13.65
2018-01-11T07:41:28.231Z,14.40
2018-01-11T07:43:55.076Z,15.75
2018-01-11T07:46:21.917Z,18.05
2018-01-11T07:48:48.878Z,15.75
2018-01-11T07:51:15.703Z,18.92
2018-01-11T07:53:42.553Z,18.65
2018-01-11T07:56:11.063Z,21.92
2018-01-11T07:58:38.702Z,16.37
2018-01-11T08:01:05.561Z,18.62
2018-01-11T08:03:32.383Z,17.35
2018-01-11T08:05:59.210Z,15.82
2018-01-11T08:08:26.058Z,15.80
2018-01-11T08:10:52.922Z,16.02
2018-01-11T08:13:19.782Z,22.75
2018-01-11T08:15:47.433Z,14.73
2018-01-11T08:18:15.002Z,15.35
2018-01-11T08:20:42.002Z,16.40
2018-01-11T08:23:08.822Z,17.48
2018-01-11T08:25:35.642Z,20.48
2018-01-11T08:28:02.503Z,16.70
2018-01-11T08:30:29.335Z,20.52
2018-01-11T08:32:56.910Z,17.50
2018-01-11T08:35:23.765Z,15.38
2018-01-11T08:37:50.593Z,19.30
2018-01-11T08:40:17.402Z,14.98
2018-01-11T08:42:45.069Z,13.88
2018-01-11T08:45:12.686Z,15.95
2018-01-11T08:47:39.494Z,13.65
2018-01-11T08:50:06.341Z,14.02
2018-01-11T08:52:33.201Z,13.05
2018-01-11T08:55:00.031Z,16.20
2018-01-11T08:57:26.914Z,12.75
2018-01-11T08:59:53.726Z,15.43
2018-01-11T09:02:20.538Z,15.80
2018-01-11T09:04:48.148Z,15.25
2018-01-11T09:07:15.709Z,12.43
2018-01-11T09:09:42.541Z,15.60
2018-01-11T09:12:09.394Z,13.27
2018-01-11T09:14:36.205Z,13.18
2018-01-11T09:17:03.111Z,16.17
2018-01-11T09:19:30.705Z,10.75
2018-01-11T09:21:58.254Z,12.20
2018-01-11T09:24:25.186Z,12.37
2018-01-11T09:26:52.790Z,12.50
2018-01-11T09:29:19.611Z,12.75
2018-01-11T09:31:46.471Z,14.20
2018-01-11T09:34:13.287Z,16.30
2018-01-11T09:36:40.138Z,13.90
2018-01-11T09:39:07.001Z,12.65
2018-01-11T09:41:33.826Z,12.60
2018-01-11T09:44:00.694Z,13.75
2018-01-11T09:46:27.518Z,20.85
2018-01-11T09:48:54.360Z,14.13
2018-01-11T09:51:21.848Z,29.10
2018-01-11T09:53:48.693Z,13.77
2018-01-11T09:56:15.584Z,12.25
2018-01-11T09:58:43.130Z,13.75
2018-01-11T10:01:10.045Z,11.88
2018-01-11T10:03:36.877Z,12.18
2018-01-11T10:06:04.454Z,11.95
2018-01-11T10:08:31.317Z,11.85
2018-01-11T10:10:58.929Z,11.68
2018-01-11T10:13:25.738Z,14.25
2018-01-11T10:15:52.606Z,12.18
2018-01-11T10:18:19.474Z,12.32
2018-01-11T10:20:46.338Z,13.85
2018-01-11T10:23:13.901Z,14.57
2018-01-11T10:25:40.755Z,13.45
2018-01-11T10:28:08.361Z,11.60
2018-01-11T10:30:35.205Z,12.05
2018-01-11T10:33:02.058Z,15.82
2018-01-11T10:35:28.890Z,12.80
2018-01-11T10:37:55.779Z,13.82
2018-01-11T10:40:23.362Z,11.77
2018-01-11T10:42:50.193Z,12.85
2018-01-11T10:45:17.839Z,15.45
2018-01-11T10:47:45.452Z,14.95
2018-01-11T10:50:12.330Z,13.88
2018-01-11T10:52:39.248Z,12.73
2018-01-11T10:55:06.141Z,12.05
2018-01-11T10:57:33.761Z,13.50
2018-01-11T11:00:00.642Z,13.85
2018-01-11T11:02:34.364Z,18.40
2018-01-11T11:05:01.946Z,14.63
2018-01-11T11:07:28.773Z,14.32
2018-01-11T11:09:56.350Z,13.98
2018-01-11T11:12:23.194Z,12.95
2018-01-11T11:14:50.070Z,12.20
2018-01-11T11:17:16.887Z,14.35
2018-01-11T11:19:43.695Z,14.40
2018-01-11T11:22:10.574Z,13.15
2018-01-11T11:24:37.362Z,16.20
2018-01-11T11:27:05.005Z,19.62
2018-01-11T11:29:32.074Z,15.52
2018-01-11T11:31:59.098Z,20.30
2018-01-11T11:34:25.915Z,20.50
2018-01-11T11:36:52.742Z,23.10
2018-01-11T11:39:19.597Z,14.93
2018-01-11T11:41:46.442Z,16.75
2018-01-11T11:44:13.305Z,17.08
2018-01-11T11:46:40.110Z,14.68
2018-01-11T11:49:07.678Z,13.90
2018-01-11T11:51:34.546Z,19.30
2018-01-11T11:54:01.354Z,16.77
2018-01-11T11:56:28.265Z,20.02
2018-01-11T11:58:55.833Z,21.27
2018-01-11T12:01:23.450Z,36.75
2018-01-11T12:03:50.336Z,21.73
2018-01-11T12:06:17.193Z,24.75
2018-01-11T12:08:44.066Z,17.30
2018-01-11T12:11:10.934Z,26.70
2018-01-11T12:13:37.846Z,22.27
2018-01-11T12:16:04.674Z,25.88
2018-01-11T12:18:31.491Z,21.55
2018-01-11T12:20:59.107Z,19.30
2018-01-11T12:23:25.975Z,15.88
2018-01-11T12:25:52.798Z,19.02
2018-01-11T12:28:19.618Z,18.37
2018-01-11T12:30:46.486Z,18.08
2018-01-11T12:33:14.037Z,19.37
2018-01-11T12:35:40.902Z,24.63
2018-01-11T12:38:07.765Z,24.20
2018-01-11T12:40:35.325Z,19.33
2018-01-11T12:43:02.950Z,26.15
2018-01-11T12:45:29.772Z,20.90
2018-01-11T12:47:56.606Z,24.50
2018-01-11T12:50:23.493Z,25.92
2018-01-11T12:52:50.305Z,21.50
2018-01-11T12:55:17.253Z,19.70
2018-01-11T12:57:44.085Z,22.55
2018-01-11T13:00:10.921Z,23.27
2018-01-11T13:02:37.854Z,24.05
2018-01-11T13:05:04.781Z,26.35
2018-01-11T13:07:32.346Z,19.02
2018-01-11T13:09:59.286Z,14.82
2018-01-11T13:12:26.862Z,11.23
2018-01-11T13:14:53.713Z,11.52
2018-01-11T13:17:20.654Z,8.57
2018-01-11T13:19:47.493Z,11.77
2018-01-11T13:22:14.335Z,14.00
2018-01-11T13:24:41.341Z,15.10
2018-01-11T13:27:08.223Z,14.32
2018-01-11T13:29:35.166Z,10.90
2018-01-11T13:32:02.258Z,13.38
2018-01-11T13:34:29.190Z,13.13
2018-01-11T13:36:56.206Z,11.77
2018-01-11T13:39:23.077Z,9.65
2018-01-11T13:41:49.919Z,13.43
2018-01-11T13:44:16.867Z,9.10
2018-01-11T13:46:43.813Z,8.32
2018-01-11T13:49:10.697Z,9.40
2018-01-11T13:51:37.534Z,8.35
2018-01-11T13:54:04.426Z,10.60
2018-01-11T13:56:31.270Z,9.48
2018-01-11T13:58:58.109Z,15.30
2018-01-11T14:01:25.017Z,15.85
2018-01-11T14:03:51.846Z,18.33
2018-01-11T14:06:18.746Z,24.65
2018-01-11T14:08:46.390Z,20.77
2018-01-11T14:11:13.286Z,21.10
2018-01-11T14:13:40.154Z,24.48
2018-01-11T14:16:07.029Z,27.55
2018-01-11T14:18:33.903Z,20.37
2018-01-11T14:21:00.774Z,20.20
2018-01-11T14:23:27.629Z,19.98
2018-01-11T14:25:55.214Z,23.92
2018-01-11T14:28:22.066Z,21.60
2018-01-11T14:30:48.934Z,19.42
2018-01-11T14:33:15.791Z,22.55
2018-01-11T14:35:42.650Z,21.87
2018-01-11T14:38:09.506Z,22.87
2018-01-11T14:40:37.096Z,20.88
2018-01-11T14:43:04.681Z,21.00
2018-01-11T14:45:31.561Z,23.17
2018-01-11T14:47:58.446Z,20.85
2018-01-11T14:50:25.307Z,20.37
2018-01-11T14:52:52.154Z,22.73
2018-01-11T14:55:19.013Z,23.25
2018-01-11T14:57:45.894Z,30.35
2018-01-11T15:00:12.757Z,26.23
2018-01-11T15:02:40.361Z,35.58
2018-01-11T15:05:07.224Z,24.10
2018-01-11T15:07:34.817Z,30.20
2018-01-11T15:10:01.667Z,20.48
2018-01-11T15:12:28.490Z,25.75
2018-01-11T15:14:56.141Z,24.42
2018-01-11T15:17:23.746Z,24.58
2018-01-11T15:19:56.704Z,24.90
2018-01-11T15:22:23.729Z,25.15
2018-01-11T15:24:50.671Z,28.40
2018-01-11T15:27:18.274Z,25.15
2018-01-11T15:29:45.122Z,23.02
2018-01-11T15:32:12.129Z,24.77
2018-01-11T15:34:39.790Z,22.75
2018-01-11T15:37:07.413Z,19.98
2018-01-11T15:39:34.235Z,25.58
2018-01-11T15:42:01.078Z,22.73
2018-01-11T15:44:27.963Z,22.98
2018-01-11T15:46:55.097Z,27.40
2018-01-11T15:49:23.537Z,25.05
2018-01-11T15:51:51.258Z,21.10
2018-01-11T15:54:18.362Z,24.67
2018-01-11T15:56:45.470Z,23.98
2018-01-11T15:59:12.446Z,26.27
2018-01-11T16:01:39.523Z,28.50
2018-01-11T16:04:06.502Z,24.75
2018-01-11T16:06:34.569Z,24.73
2018-01-11T16:09:02.506Z,25.05
2018-01-11T16:11:30.150Z,22.13
2018-01-11T16:13:57.013Z,20.30
2018-01-11T16:16:24.718Z,28.38
2018-01-11T16:18:51.550Z,25.52
2018-01-11T16:21:18.446Z,22.92
2018-01-11T16:23:45.313Z,21.55
2018-01-11T16:26:12.298Z,25.52
2018-01-11T16:28:39.982Z,26.33
2018-01-11T16:31:06.846Z,28.42
2018-01-11T16:33:34.466Z,26.73
2018-01-11T16:36:02.126Z,24.92
2018-01-11T16:38:29.110Z,23.83
2018-01-11T16:40:55.943Z,23.15
2018-01-11T16:43:23.205Z,21.33
2018-01-11T16:45:50.346Z,20.50
2018-01-11T16:48:17.342Z,27.37
2018-01-11T16:50:44.335Z,24.30
2018-01-11T16:53:11.986Z,22.90
2018-01-11T16:55:39.078Z,28.05
2018-01-11T16:58:06.125Z,22.87
2018-01-11T17:00:33.899Z,29.17
2018-01-11T17:03:00.834Z,28.58
2018-01-11T17:05:28.786Z,25.52
2018-01-11T17:07:55.855Z,26.45
2018-01-11T17:10:22.923Z,25.83
2018-01-11T17:12:50.870Z,26.27
2018-01-11T17:15:17.990Z,26.40
2018-01-11T17:17:45.063Z,21.00
2018-01-11T17:20:11.925Z,29.52
2018-01-11T17:22:38.783Z,23.42
2018-01-11T17:25:05.717Z,23.67
2018-01-11T17:27:33.371Z,24.25
2018-01-11T17:30:00.221Z,22.45
2018-01-11T17:32:27.806Z,25.20
2018-01-11T17:34:55.410Z,23.27
2018-01-11T17:37:22.403Z,21.98
2018-01-11T17:39:49.311Z,22.58
2018-01-11T17:42:16.362Z,22.52
2018-01-11T17:44:44.132Z,24.60
2018-01-11T17:47:11.362Z,22.20
2018-01-11T17:49:38.196Z,23.33
2018-01-11T17:52:05.242Z,25.62
2018-01-11T17:54:33.071Z,27.05
2018-01-11T17:57:00.166Z,22.05
2018-01-11T17:59:27.047Z,26.62
2018-01-11T18:01:55.897Z,21.05
2018-01-11T18:04:22.833Z,24.02
2018-01-11T18:06:49.754Z,22.08
2018-01-11T18:09:16.850Z,21.15
2018-01-11T18:11:44.854Z,19.58
2018-01-11T18:14:12.718Z,21.62
2018-01-11T18:16:41.202Z,18.73
2018-01-11T18:19:08.074Z,21.87
2018-01-11T18:21:35.733Z,19.80
2018-01-11T18:24:02.778Z,24.92
2018-01-11T18:26:29.842Z,22.42
2018-01-11T18:28:56.710Z,22.98
2018-01-11T18:31:23.795Z,26.08
2018-01-11T18:33:50.906Z,27.05
2018-01-11T18:36:18.651Z,20.10
2018-01-11T18:38:45.610Z,23.42
2018-01-11T18:41:13.310Z,23.85
2018-01-11T18:43:40.506Z,31.02
2018-01-11T18:46:07.671Z,29.95
2018-01-11T18:48:35.379Z,24.08
2018-01-11T18:51:02.446Z,32.85
2018-01-11T18:53:29.410Z,36.60
2018-01-11T18:55:56.497Z,33.00
2018-01-11T18:58:23.630Z,40.78
2018-01-11T19:00:50.666Z,37.05
2018-01-11T19:03:17.722Z,38.22
2018-01-11T19:05:44.701Z,42.67
2018-01-11T19:08:11.565Z,41.13
2018-01-11T19:10:39.294Z,37.97
2018-01-11T19:13:06.399Z,43.92
2018-01-11T19:15:33.499Z,47.03
2018-01-11T19:18:01.158Z,43.38
2018-01-11T19:20:28.182Z,45.58
2018-01-11T19:22:55.011Z,39.97
2018-01-11T19:25:22.002Z,45.30
2018-01-11T19:27:48.975Z,41.58
2018-01-11T19:30:15.802Z,46.90
2018-01-11T19:32:43.405Z,50.97
2018-01-11T19:35:10.375Z,45.50
2018-01-11T19:37:37.257Z,44.38
2018-01-11T19:40:04.855Z,41.65
2018-01-11T19:42:31.998Z,48.97
2018-01-11T19:44:59.058Z,48.95
2018-01-11T19:47:25.915Z,56.15
2018-01-11T19:49:52.798Z,48.13
2018-01-11T19:52:19.864Z,50.67
2018-01-11T19:54:46.753Z,50.08
2018-01-11T19:57:13.667Z,58.75
2018-01-11T19:59:40.833Z,56.60
2018-01-11T20:02:07.951Z,50.08
2018-01-11T20:04:34.974Z,54.60
2018-01-11T20:07:02.214Z,63.28
2018-01-11T20:09:29.138Z,52.80
2018-01-11T20:11:56.091Z,56.95
2018-01-11T20:14:23.098Z,52.80
2018-01-11T20:16:50.282Z,52.03
2018-01-11T20:19:17.400Z,51.22
2018-01-11T20:21:44.286Z,52.03
2018-01-11T20:24:11.298Z,42.97
2018-01-11T20:26:39.047Z,34.70
2018-01-11T20:29:07.038Z,34.22
2018-01-11T20:31:34.146Z,36.30
2018-01-11T20:34:01.312Z,39.15
2018-01-11T20:36:29.185Z,31.67
2018-01-11T20:38:56.260Z,37.00
2018-01-11T20:41:23.955Z,33.55
2018-01-11T20:43:50.810Z,35.63
2018-01-11T20:46:17.958Z,33.50
2018-01-11T20:48:44.843Z,31.45
2018-01-11T20:51:11.912Z,30.40
2018-01-11T20:53:39.050Z,29.77
2018-01-11T20:56:06.219Z,34.33
2018-01-11T20:58:33.223Z,39.80
2018-01-11T21:01:00.230Z,47.60
2018-01-11T21:03:27.246Z,49.03
2018-01-11T21:05:54.331Z,43.80
2018-01-11T21:08:21.847Z,36.38
2018-01-11T21:10:48.886Z,35.38
2018-01-11T21:13:15.963Z,32.17
2018-01-11T21:15:43.098Z,39.55
2018-01-11T21:18:12.650Z,28.27
2018-01-11T21:20:39.548Z,34.17
2018-01-11T21:23:06.483Z,34.65
2018-01-11T21:25:33.446Z,31.23
2018-01-11T21:28:00.520Z,29.92
2018-01-11T21:30:27.542Z,29.48
2018-01-11T21:32:55.418Z,34.25
2018-01-11T21:35:23.099Z,27.60
2018-01-11T21:37:50.731Z,31.58
2018-01-11T21:40:17.767Z,30.23
2018-01-11T21:42:44.615Z,31.08
2018-01-11T21:45:11.498Z,33.50
2018-01-11T21:47:38.721Z,32.78
2018-01-11T21:50:05.890Z,31.25
2018-01-11T21:52:32.796Z,30.25
2018-01-11T21:54:59.650Z,29.15
2018-01-11T21:57:26.699Z,31.05
2018-01-11T21:59:54.498Z,34.03
2018-01-11T22:02:21.422Z,35.40
2018-01-11T22:04:48.492Z,34.55
2018-01-11T22:07:16.262Z,31.62
2018-01-11T22:09:43.998Z,30.90
2018-01-11T22:12:10.874Z,31.80
2018-01-11T22:14:38.476Z,33.30
2018-01-11T22:17:06.559Z,33.75
2018-01-11T22:19:33.702Z,33.05
2018-01-11T22:22:01.370Z,32.75
2018-01-11T22:24:28.417Z,33.42
2018-01-11T22:26:55.662Z,33.55
2018-01-11T22:29:22.809Z,43.55
2018-01-11T22:31:49.726Z,39.17
2018-01-11T22:34:16.920Z,38.45
2018-01-11T22:36:44.046Z,41.45
2018-01-11T22:39:11.082Z,40.35
2018-01-11T22:41:38.098Z,33.97
2018-01-11T22:44:05.831Z,34.58
2018-01-11T22:46:33.010Z,31.20
2018-01-11T22:49:00.051Z,29.73
2018-01-11T22:51:27.102Z,28.60
2018-01-11T22:53:53.926Z,27.02
2018-01-11T22:56:20.908Z,30.67
2018-01-11T22:58:48.522Z,27.67
2018-01-11T23:01:15.555Z,30.23
2018-01-11T23:03:42.621Z,32.88
2018-01-11T23:06:09.606Z,35.47
2018-01-11T23:08:37.414Z,34.08
2018-01-11T23:11:04.350Z,31.58
2018-01-11T23:13:31.410Z,31.45
2018-01-11T23:15:59.345Z,37.70
2018-01-11T23:18:26.462Z,33.38
2018-01-11T23:20:54.227Z,27.40
2018-01-11T23:23:21.959Z,34.00
2018-01-11T23:25:49.048Z,34.85
2018-01-11T23:28:16.157Z,41.55
2018-01-11T23:30:42.974Z,32.83
2018-01-11T23:33:10.039Z,32.00
2018-01-11T23:35:37.123Z,35.83
2018-01-11T23:38:04.019Z,34.97
2018-01-11T23:40:31.175Z,33.75
2018-01-11T23:42:58.314Z,45.72
2018-01-11T23:45:26.038Z,36.28
2018-01-11T23:47:53.878Z,35.70
2018-01-11T23:50:20.798Z,36.53
2018-01-11T23:52:47.634Z,34.85
2018-01-11T23:55:14.687Z,34.45
2018-01-11T23:57:41.718Z,32.60
